sensor_id;sensor_type;location;lat;lon;timestamp;P1;durP1;ratioP1;P2;durP2;ratioP2
8861;SDS011;4799;50.996;4.754;2023-05-28T00:00:29;8.63;;;6.57;;
8861;SDS011;4799;50.996;4.754;2023-05-28T00:02:55;8.67;;;7.00;;
8861;SDS011;4799;50.996;4.754;2023-05-28T00:05:22;9.77;;;7.33;;
8861;SDS011;4799;50.996;4.754;2023-05-28T00:07:48;8.40;;;6.70;;
8861;SDS011;4799;50.996;4.754;2023-05-28T00:10:13;9.20;;;6.60;;
8861;SDS011;4799;50.996;4.754;2023-05-28T00:12:39;10.20;;;6.67;;
8861;SDS011;4799;50.996;4.754;2023-05-28T00:15:05;8.40;;;6.67;;
8861;SDS011;4799;50.996;4.754;2023-05-28T00:17:32;7.87;;;6.47;;
8861;SDS011;4799;50.996;4.754;2023-05-28T00:19:58;7.60;;;6.80;;
8861;SDS011;4799;50.996;4.754;2023-05-28T00:22:24;10.10;;;6.90;;
8861;SDS011;4799;50.996;4.754;2023-05-28T00:24:50;8.13;;;6.57;;
8861;SDS011;4799;50.996;4.754;2023-05-28T00:27:16;8.77;;;7.40;;
8861;SDS011;4799;50.996;4.754;2023-05-28T00:29:42;9.43;;;7.13;;
8861;SDS011;4799;50.996;4.754;2023-05-28T00:32:08;9.63;;;7.07;;
8861;SDS011;4799;50.996;4.754;2023-05-28T00:34:34;9.70;;;6.77;;
8861;SDS011;4799;50.996;4.754;2023-05-28T00:37:00;11.47;;;7.07;;
8861;SDS011;4799;50.996;4.754;2023-05-28T00:39:26;8.33;;;6.67;;
8861;SDS011;4799;50.996;4.754;2023-05-28T00:42:01;8.50;;;7.43;;
8861;SDS011;4799;50.996;4.754;2023-05-28T00:44:28;11.03;;;8.03;;
8861;SDS011;4799;50.996;4.754;2023-05-28T00:46:56;10.00;;;8.63;;
8861;SDS011;4799;50.996;4.754;2023-05-28T00:49:22;10.33;;;8.13;;
8861;SDS011;4799;50.996;4.754;2023-05-28T00:51:49;9.57;;;7.10;;
8861;SDS011;4799;50.996;4.754;2023-05-28T00:54:15;10.97;;;7.37;;
8861;SDS011;4799;50.996;4.754;2023-05-28T00:56:41;12.40;;;8.23;;
8861;SDS011;4799;50.996;4.754;2023-05-28T00:59:09;9.83;;;7.73;;
8861;SDS011;4799;50.996;4.754;2023-05-28T01:01:35;9.13;;;6.97;;
8861;SDS011;4799;50.996;4.754;2023-05-28T01:04:01;9.63;;;7.40;;
8861;SDS011;4799;50.996;4.754;2023-05-28T01:06:27;10.70;;;7.77;;
8861;SDS011;4799;50.996;4.754;2023-05-28T01:08:54;11.00;;;7.63;;
8861;SDS011;4799;50.996;4.754;2023-05-28T01:11:21;11.70;;;7.33;;
8861;SDS011;4799;50.996;4.754;2023-05-28T01:13:49;9.43;;;7.17;;
8861;SDS011;4799;50.996;4.754;2023-05-28T01:16:15;9.83;;;7.57;;
8861;SDS011;4799;50.996;4.754;2023-05-28T01:18:41;10.87;;;7.20;;
8861;SDS011;4799;50.996;4.754;2023-05-28T01:21:09;10.17;;;6.87;;
8861;SDS011;4799;50.996;4.754;2023-05-28T01:23:42;8.87;;;7.00;;
8861;SDS011;4799;50.996;4.754;2023-05-28T01:26:13;10.50;;;7.50;;
8861;SDS011;4799;50.996;4.754;2023-05-28T01:28:44;9.67;;;7.37;;
8861;SDS011;4799;50.996;4.754;2023-05-28T01:31:11;10.97;;;7.70;;
8861;SDS011;4799;50.996;4.754;2023-05-28T01:33:37;11.13;;;7.60;;
8861;SDS011;4799;50.996;4.754;2023-05-28T01:36:06;9.73;;;6.87;;
8861;SDS011;4799;50.996;4.754;2023-05-28T01:38:39;11.23;;;7.17;;
8861;SDS011;4799;50.996;4.754;2023-05-28T01:41:08;9.03;;;6.57;;
8861;SDS011;4799;50.996;4.754;2023-05-28T01:43:34;11.97;;;7.63;;
8861;SDS011;4799;50.996;4.754;2023-05-28T01:46:01;11.23;;;7.97;;
8861;SDS011;4799;50.996;4.754;2023-05-28T01:48:27;11.23;;;7.87;;
8861;SDS011;4799;50.996;4.754;2023-05-28T01:50:54;11.13;;;7.30;;
8861;SDS011;4799;50.996;4.754;2023-05-28T01:53:20;9.30;;;7.70;;
8861;SDS011;4799;50.996;4.754;2023-05-28T01:55:46;12.00;;;7.47;;
8861;SDS011;4799;50.996;4.754;2023-05-28T01:58:12;10.37;;;8.07;;
8861;SDS011;4799;50.996;4.754;2023-05-28T02:00:41;9.63;;;7.80;;
8861;SDS011;4799;50.996;4.754;2023-05-28T02:03:13;9.83;;;7.70;;
8861;SDS011;4799;50.996;4.754;2023-05-28T02:05:39;9.87;;;7.33;;
8861;SDS011;4799;50.996;4.754;2023-05-28T02:08:04;11.53;;;8.10;;
8861;SDS011;4799;50.996;4.754;2023-05-28T02:10:30;10.03;;;8.20;;
8861;SDS011;4799;50.996;4.754;2023-05-28T02:12:56;10.57;;;8.70;;
8861;SDS011;4799;50.996;4.754;2023-05-28T02:15:22;11.50;;;9.20;;
8861;SDS011;4799;50.996;4.754;2023-05-28T02:17:47;12.30;;;8.33;;
8861;SDS011;4799;50.996;4.754;2023-05-28T02:20:14;12.83;;;10.33;;
8861;SDS011;4799;50.996;4.754;2023-05-28T02:22:40;14.80;;;11.00;;
8861;SDS011;4799;50.996;4.754;2023-05-28T02:25:06;16.23;;;11.17;;
8861;SDS011;4799;50.996;4.754;2023-05-28T02:27:31;14.47;;;11.37;;
8861;SDS011;4799;50.996;4.754;2023-05-28T02:29:57;16.50;;;12.17;;
8861;SDS011;4799;50.996;4.754;2023-05-28T02:32:23;17.13;;;11.67;;
8861;SDS011;4799;50.996;4.754;2023-05-28T02:34:49;17.47;;;11.77;;
8861;SDS011;4799;50.996;4.754;2023-05-28T02:37:15;17.77;;;11.40;;
8861;SDS011;4799;50.996;4.754;2023-05-28T02:39:41;16.60;;;12.07;;
8861;SDS011;4799;50.996;4.754;2023-05-28T02:42:07;17.93;;;12.40;;
8861;SDS011;4799;50.996;4.754;2023-05-28T02:44:32;14.97;;;11.93;;
8861;SDS011;4799;50.996;4.754;2023-05-28T02:46:58;16.53;;;12.17;;
8861;SDS011;4799;50.996;4.754;2023-05-28T02:49:24;17.03;;;12.20;;
8861;SDS011;4799;50.996;4.754;2023-05-28T02:51:50;13.53;;;10.80;;
8861;SDS011;4799;50.996;4.754;2023-05-28T02:54:16;15.67;;;10.87;;
8861;SDS011;4799;50.996;4.754;2023-05-28T02:56:41;14.10;;;10.03;;
8861;SDS011;4799;50.996;4.754;2023-05-28T02:59:07;12.90;;;10.33;;
8861;SDS011;4799;50.996;4.754;2023-05-28T03:01:33;12.87;;;10.00;;
8861;SDS011;4799;50.996;4.754;2023-05-28T03:03:58;13.63;;;10.93;;
8861;SDS011;4799;50.996;4.754;2023-05-28T03:06:24;13.30;;;10.33;;
8861;SDS011;4799;50.996;4.754;2023-05-28T03:08:50;15.03;;;10.73;;
8861;SDS011;4799;50.996;4.754;2023-05-28T03:11:16;13.83;;;10.60;;
8861;SDS011;4799;50.996;4.754;2023-05-28T03:13:41;15.23;;;10.30;;
8861;SDS011;4799;50.996;4.754;2023-05-28T03:16:07;13.70;;;9.97;;
8861;SDS011;4799;50.996;4.754;2023-05-28T03:18:33;12.70;;;9.90;;
8861;SDS011;4799;50.996;4.754;2023-05-28T03:20:59;12.00;;;10.00;;
8861;SDS011;4799;50.996;4.754;2023-05-28T03:23:25;11.33;;;9.60;;
8861;SDS011;4799;50.996;4.754;2023-05-28T03:25:50;11.73;;;9.23;;
8861;SDS011;4799;50.996;4.754;2023-05-28T03:28:16;11.70;;;9.33;;
8861;SDS011;4799;50.996;4.754;2023-05-28T03:30:42;11.83;;;9.67;;
8861;SDS011;4799;50.996;4.754;2023-05-28T03:33:08;10.80;;;9.33;;
8861;SDS011;4799;50.996;4.754;2023-05-28T03:35:33;12.13;;;9.33;;
8861;SDS011;4799;50.996;4.754;2023-05-28T03:37:59;11.73;;;9.93;;
8861;SDS011;4799;50.996;4.754;2023-05-28T03:40:25;10.97;;;8.50;;
8861;SDS011;4799;50.996;4.754;2023-05-28T03:42:50;11.33;;;8.83;;
8861;SDS011;4799;50.996;4.754;2023-05-28T03:45:16;10.27;;;9.00;;
8861;SDS011;4799;50.996;4.754;2023-05-28T03:47:42;11.00;;;8.97;;
8861;SDS011;4799;50.996;4.754;2023-05-28T03:50:08;12.63;;;9.50;;
8861;SDS011;4799;50.996;4.754;2023-05-28T03:52:35;10.67;;;9.57;;
8861;SDS011;4799;50.996;4.754;2023-05-28T03:55:00;9.93;;;8.93;;
8861;SDS011;4799;50.996;4.754;2023-05-28T03:57:26;10.33;;;9.00;;
8861;SDS011;4799;50.996;4.754;2023-05-28T03:59:52;11.20;;;9.37;;
8861;SDS011;4799;50.996;4.754;2023-05-28T04:02:20;11.20;;;9.17;;
8861;SDS011;4799;50.996;4.754;2023-05-28T04:04:46;10.20;;;9.20;;
8861;SDS011;4799;50.996;4.754;2023-05-28T04:07:12;10.70;;;9.30;;
8861;SDS011;4799;50.996;4.754;2023-05-28T04:09:38;9.70;;;8.60;;
8861;SDS011;4799;50.996;4.754;2023-05-28T04:12:03;10.43;;;8.50;;
8861;SDS011;4799;50.996;4.754;2023-05-28T04:14:29;11.27;;;8.53;;
8861;SDS011;4799;50.996;4.754;2023-05-28T04:16:55;10.13;;;9.10;;
8861;SDS011;4799;50.996;4.754;2023-05-28T04:19:23;9.47;;;8.47;;
8861;SDS011;4799;50.996;4.754;2023-05-28T04:21:48;9.53;;;8.30;;
8861;SDS011;4799;50.996;4.754;2023-05-28T04:24:15;10.83;;;8.90;;
8861;SDS011;4799;50.996;4.754;2023-05-28T04:26:40;11.93;;;8.37;;
8861;SDS011;4799;50.996;4.754;2023-05-28T04:29:06;9.97;;;8.63;;
8861;SDS011;4799;50.996;4.754;2023-05-28T04:31:32;11.37;;;8.20;;
8861;SDS011;4799;50.996;4.754;2023-05-28T04:33:58;11.00;;;8.47;;
8861;SDS011;4799;50.996;4.754;2023-05-28T04:36:24;10.57;;;8.60;;
8861;SDS011;4799;50.996;4.754;2023-05-28T04:38:55;11.00;;;8.60;;
8861;SDS011;4799;50.996;4.754;2023-05-28T04:41:26;9.97;;;8.77;;
8861;SDS011;4799;50.996;4.754;2023-05-28T04:43:52;9.43;;;8.33;;
8861;SDS011;4799;50.996;4.754;2023-05-28T04:46:18;9.80;;;8.80;;
8861;SDS011;4799;50.996;4.754;2023-05-28T04:48:43;10.73;;;8.63;;
8861;SDS011;4799;50.996;4.754;2023-05-28T04:51:11;11.03;;;8.63;;
8861;SDS011;4799;50.996;4.754;2023-05-28T04:53:38;11.47;;;8.77;;
8861;SDS011;4799;50.996;4.754;2023-05-28T04:56:04;10.80;;;9.70;;
8861;SDS011;4799;50.996;4.754;2023-05-28T04:58:30;10.10;;;8.73;;
8861;SDS011;4799;50.996;4.754;2023-05-28T05:00:56;14.23;;;9.97;;
8861;SDS011;4799;50.996;4.754;2023-05-28T05:03:21;12.90;;;9.90;;
8861;SDS011;4799;50.996;4.754;2023-05-28T05:05:47;17.07;;;10.63;;
8861;SDS011;4799;50.996;4.754;2023-05-28T05:08:13;12.67;;;9.93;;
8861;SDS011;4799;50.996;4.754;2023-05-28T05:10:39;13.17;;;10.33;;
8861;SDS011;4799;50.996;4.754;2023-05-28T05:13:05;13.93;;;10.47;;
8861;SDS011;4799;50.996;4.754;2023-05-28T05:15:31;14.60;;;11.67;;
8861;SDS011;4799;50.996;4.754;2023-05-28T05:17:58;17.57;;;12.43;;
8861;SDS011;4799;50.996;4.754;2023-05-28T05:20:24;14.60;;;12.37;;
8861;SDS011;4799;50.996;4.754;2023-05-28T05:22:51;15.77;;;12.50;;
8861;SDS011;4799;50.996;4.754;2023-05-28T05:25:16;15.10;;;12.13;;
8861;SDS011;4799;50.996;4.754;2023-05-28T05:27:42;15.93;;;12.10;;
8861;SDS011;4799;50.996;4.754;2023-05-28T05:30:08;17.43;;;13.30;;
8861;SDS011;4799;50.996;4.754;2023-05-28T05:32:34;21.70;;;13.27;;
8861;SDS011;4799;50.996;4.754;2023-05-28T05:35:00;15.20;;;12.70;;
8861;SDS011;4799;50.996;4.754;2023-05-28T05:37:25;17.37;;;12.27;;
8861;SDS011;4799;50.996;4.754;2023-05-28T05:39:51;17.53;;;13.37;;
8861;SDS011;4799;50.996;4.754;2023-05-28T05:42:17;17.93;;;13.67;;
8861;SDS011;4799;50.996;4.754;2023-05-28T05:44:43;18.93;;;13.10;;
8861;SDS011;4799;50.996;4.754;2023-05-28T05:47:08;16.33;;;13.13;;
8861;SDS011;4799;50.996;4.754;2023-05-28T05:49:34;15.70;;;12.40;;
8861;SDS011;4799;50.996;4.754;2023-05-28T05:52:00;15.40;;;12.37;;
8861;SDS011;4799;50.996;4.754;2023-05-28T05:54:25;17.37;;;12.87;;
8861;SDS011;4799;50.996;4.754;2023-05-28T05:56:51;18.50;;;12.50;;
8861;SDS011;4799;50.996;4.754;2023-05-28T05:59:18;15.70;;;13.33;;
8861;SDS011;4799;50.996;4.754;2023-05-28T06:01:43;17.50;;;12.73;;
8861;SDS011;4799;50.996;4.754;2023-05-28T06:04:09;15.40;;;12.63;;
8861;SDS011;4799;50.996;4.754;2023-05-28T06:06:35;13.93;;;11.43;;
8861;SDS011;4799;50.996;4.754;2023-05-28T06:09:02;17.13;;;12.53;;
8861;SDS011;4799;50.996;4.754;2023-05-28T06:11:28;15.03;;;11.97;;
8861;SDS011;4799;50.996;4.754;2023-05-28T06:13:54;14.93;;;11.80;;
8861;SDS011;4799;50.996;4.754;2023-05-28T06:16:20;15.70;;;11.77;;
8861;SDS011;4799;50.996;4.754;2023-05-28T06:18:46;14.40;;;11.73;;
8861;SDS011;4799;50.996;4.754;2023-05-28T06:21:12;15.37;;;11.80;;
8861;SDS011;4799;50.996;4.754;2023-05-28T06:23:39;15.27;;;11.50;;
8861;SDS011;4799;50.996;4.754;2023-05-28T06:26:04;16.13;;;11.77;;
8861;SDS011;4799;50.996;4.754;2023-05-28T06:28:30;14.67;;;11.20;;
8861;SDS011;4799;50.996;4.754;2023-05-28T06:30:56;16.37;;;11.10;;
8861;SDS011;4799;50.996;4.754;2023-05-28T06:33:22;15.07;;;11.37;;
8861;SDS011;4799;50.996;4.754;2023-05-28T06:35:48;15.57;;;11.17;;
8861;SDS011;4799;50.996;4.754;2023-05-28T06:38:14;13.50;;;10.70;;
8861;SDS011;4799;50.996;4.754;2023-05-28T06:40:39;15.13;;;10.97;;
8861;SDS011;4799;50.996;4.754;2023-05-28T06:43:05;14.90;;;10.80;;
8861;SDS011;4799;50.996;4.754;2023-05-28T06:45:31;14.23;;;10.87;;
8861;SDS011;4799;50.996;4.754;2023-05-28T06:47:58;14.03;;;10.47;;
8861;SDS011;4799;50.996;4.754;2023-05-28T06:50:24;14.10;;;10.73;;
8861;SDS011;4799;50.996;4.754;2023-05-28T06:52:50;13.90;;;10.20;;
8861;SDS011;4799;50.996;4.754;2023-05-28T06:55:16;13.03;;;10.23;;
8861;SDS011;4799;50.996;4.754;2023-05-28T06:57:42;13.73;;;10.07;;
8861;SDS011;4799;50.996;4.754;2023-05-28T07:00:09;14.67;;;10.27;;
8861;SDS011;4799;50.996;4.754;2023-05-28T07:02:40;13.03;;;9.90;;
8861;SDS011;4799;50.996;4.754;2023-05-28T07:05:06;12.90;;;10.23;;
8861;SDS011;4799;50.996;4.754;2023-05-28T07:07:32;16.33;;;10.07;;
8861;SDS011;4799;50.996;4.754;2023-05-28T07:09:58;12.37;;;10.17;;
8861;SDS011;4799;50.996;4.754;2023-05-28T07:12:23;15.30;;;10.30;;
8861;SDS011;4799;50.996;4.754;2023-05-28T07:14:50;14.87;;;10.20;;
8861;SDS011;4799;50.996;4.754;2023-05-28T07:17:15;10.57;;;8.13;;
8861;SDS011;4799;50.996;4.754;2023-05-28T07:19:41;15.43;;;9.63;;
8861;SDS011;4799;50.996;4.754;2023-05-28T07:22:07;14.30;;;9.53;;
8861;SDS011;4799;50.996;4.754;2023-05-28T07:24:33;11.33;;;9.13;;
8861;SDS011;4799;50.996;4.754;2023-05-28T07:26:58;11.47;;;8.67;;
8861;SDS011;4799;50.996;4.754;2023-05-28T07:29:26;13.33;;;8.80;;
8861;SDS011;4799;50.996;4.754;2023-05-28T07:31:52;13.57;;;9.50;;
8861;SDS011;4799;50.996;4.754;2023-05-28T07:34:18;14.00;;;9.73;;
8861;SDS011;4799;50.996;4.754;2023-05-28T07:36:43;13.97;;;9.53;;
8861;SDS011;4799;50.996;4.754;2023-05-28T07:39:09;13.47;;;9.20;;
8861;SDS011;4799;50.996;4.754;2023-05-28T07:41:35;13.53;;;9.60;;
8861;SDS011;4799;50.996;4.754;2023-05-28T07:44:01;12.77;;;8.80;;
8861;SDS011;4799;50.996;4.754;2023-05-28T07:46:27;12.03;;;8.50;;
8861;SDS011;4799;50.996;4.754;2023-05-28T07:48:53;12.30;;;9.00;;
8861;SDS011;4799;50.996;4.754;2023-05-28T07:51:18;11.37;;;8.87;;
8861;SDS011;4799;50.996;4.754;2023-05-28T07:53:44;12.93;;;8.83;;
8861;SDS011;4799;50.996;4.754;2023-05-28T07:56:10;13.27;;;8.77;;
8861;SDS011;4799;50.996;4.754;2023-05-28T07:58:36;14.03;;;8.80;;
8861;SDS011;4799;50.996;4.754;2023-05-28T08:01:02;9.83;;;8.30;;
8861;SDS011;4799;50.996;4.754;2023-05-28T08:03:33;14.40;;;8.90;;
8861;SDS011;4799;50.996;4.754;2023-05-28T08:06:00;12.13;;;9.47;;
8861;SDS011;4799;50.996;4.754;2023-05-28T08:08:27;12.17;;;8.80;;
8861;SDS011;4799;50.996;4.754;2023-05-28T08:10:53;11.60;;;8.70;;
8861;SDS011;4799;50.996;4.754;2023-05-28T08:13:18;12.50;;;9.40;;
8861;SDS011;4799;50.996;4.754;2023-05-28T08:15:44;11.37;;;8.77;;
8861;SDS011;4799;50.996;4.754;2023-05-28T08:18:10;11.70;;;8.83;;
8861;SDS011;4799;50.996;4.754;2023-05-28T08:20:36;13.53;;;9.67;;
8861;SDS011;4799;50.996;4.754;2023-05-28T08:23:01;13.13;;;9.30;;
8861;SDS011;4799;50.996;4.754;2023-05-28T08:25:27;11.30;;;9.57;;
8861;SDS011;4799;50.996;4.754;2023-05-28T08:27:53;13.07;;;9.03;;
8861;SDS011;4799;50.996;4.754;2023-05-28T08:30:19;11.53;;;8.27;;
8861;SDS011;4799;50.996;4.754;2023-05-28T08:32:45;12.23;;;7.97;;
8861;SDS011;4799;50.996;4.754;2023-05-28T08:35:11;12.97;;;8.60;;
8861;SDS011;4799;50.996;4.754;2023-05-28T08:37:38;11.77;;;8.60;;
8861;SDS011;4799;50.996;4.754;2023-05-28T08:40:04;11.63;;;7.43;;
8861;SDS011;4799;50.996;4.754;2023-05-28T08:42:34;13.73;;;8.33;;
8861;SDS011;4799;50.996;4.754;2023-05-28T08:45:00;10.27;;;8.03;;
8861;SDS011;4799;50.996;4.754;2023-05-28T08:47:33;9.83;;;7.23;;
8861;SDS011;4799;50.996;4.754;2023-05-28T08:50:05;10.70;;;7.37;;
8861;SDS011;4799;50.996;4.754;2023-05-28T08:52:32;9.60;;;6.90;;
8861;SDS011;4799;50.996;4.754;2023-05-28T08:54:59;12.50;;;6.70;;
8861;SDS011;4799;50.996;4.754;2023-05-28T08:57:25;10.77;;;7.17;;
8861;SDS011;4799;50.996;4.754;2023-05-28T08:59:53;11.83;;;6.97;;
8861;SDS011;4799;50.996;4.754;2023-05-28T09:02:22;11.37;;;7.23;;
8861;SDS011;4799;50.996;4.754;2023-05-28T09:04:49;9.07;;;6.93;;
8861;SDS011;4799;50.996;4.754;2023-05-28T09:07:15;10.63;;;6.73;;
8861;SDS011;4799;50.996;4.754;2023-05-28T09:09:41;9.63;;;6.93;;
8861;SDS011;4799;50.996;4.754;2023-05-28T09:12:11;9.67;;;6.37;;
8861;SDS011;4799;50.996;4.754;2023-05-28T09:14:38;8.60;;;6.33;;
8861;SDS011;4799;50.996;4.754;2023-05-28T09:17:06;12.43;;;6.87;;
8861;SDS011;4799;50.996;4.754;2023-05-28T09:19:35;10.60;;;6.23;;
8861;SDS011;4799;50.996;4.754;2023-05-28T09:22:01;8.73;;;6.07;;
8861;SDS011;4799;50.996;4.754;2023-05-28T09:24:29;10.07;;;6.03;;
8861;SDS011;4799;50.996;4.754;2023-05-28T09:26:59;7.40;;;5.73;;
8861;SDS011;4799;50.996;4.754;2023-05-28T09:29:26;7.87;;;6.13;;
8861;SDS011;4799;50.996;4.754;2023-05-28T09:31:56;9.00;;;6.20;;
8861;SDS011;4799;50.996;4.754;2023-05-28T09:34:41;8.63;;;6.20;;
8861;SDS011;4799;50.996;4.754;2023-05-28T09:37:12;9.57;;;5.87;;
8861;SDS011;4799;50.996;4.754;2023-05-28T09:39:42;7.60;;;6.20;;
8861;SDS011;4799;50.996;4.754;2023-05-28T09:42:08;11.33;;;6.00;;
8861;SDS011;4799;50.996;4.754;2023-05-28T09:44:41;6.37;;;5.10;;
8861;SDS011;4799;50.996;4.754;2023-05-28T09:47:13;8.30;;;5.77;;
8861;SDS011;4799;50.996;4.754;2023-05-28T09:49:43;9.20;;;5.20;;
8861;SDS011;4799;50.996;4.754;2023-05-28T09:52:12;7.47;;;5.20;;
8861;SDS011;4799;50.996;4.754;2023-05-28T09:54:52;8.53;;;5.70;;
8861;SDS011;4799;50.996;4.754;2023-05-28T09:57:27;7.30;;;5.47;;
8861;SDS011;4799;50.996;4.754;2023-05-28T09:59:55;10.83;;;5.70;;
8861;SDS011;4799;50.996;4.754;2023-05-28T10:05:16;8.40;;;5.20;;
8861;SDS011;4799;50.996;4.754;2023-05-28T10:07:44;8.93;;;5.63;;
8861;SDS011;4799;50.996;4.754;2023-05-28T10:10:13;7.70;;;5.43;;
8861;SDS011;4799;50.996;4.754;2023-05-28T10:12:41;9.87;;;5.03;;
8861;SDS011;4799;50.996;4.754;2023-05-28T10:15:07;7.60;;;5.03;;
8861;SDS011;4799;50.996;4.754;2023-05-28T10:17:35;7.20;;;5.00;;
8861;SDS011;4799;50.996;4.754;2023-05-28T10:20:02;9.00;;;5.07;;
8861;SDS011;4799;50.996;4.754;2023-05-28T10:22:30;9.47;;;5.40;;
8861;SDS011;4799;50.996;4.754;2023-05-28T10:24:57;7.80;;;4.77;;
8861;SDS011;4799;50.996;4.754;2023-05-28T10:27:29;8.33;;;4.97;;
8861;SDS011;4799;50.996;4.754;2023-05-28T10:29:58;6.43;;;4.57;;
8861;SDS011;4799;50.996;4.754;2023-05-28T10:32:37;7.97;;;4.57;;
8861;SDS011;4799;50.996;4.754;2023-05-28T10:35:06;8.27;;;4.67;;
8861;SDS011;4799;50.996;4.754;2023-05-28T10:37:34;5.83;;;4.90;;
8861;SDS011;4799;50.996;4.754;2023-05-28T10:40:00;6.37;;;4.83;;
8861;SDS011;4799;50.996;4.754;2023-05-28T10:42:26;9.53;;;5.17;;
8861;SDS011;4799;50.996;4.754;2023-05-28T10:45:04;6.97;;;4.87;;
8861;SDS011;4799;50.996;4.754;2023-05-28T10:47:32;9.43;;;4.90;;
8861;SDS011;4799;50.996;4.754;2023-05-28T10:52:34;6.90;;;4.50;;
8861;SDS011;4799;50.996;4.754;2023-05-28T10:55:04;8.27;;;4.73;;
8861;SDS011;4799;50.996;4.754;2023-05-28T10:57:42;7.17;;;5.03;;
8861;SDS011;4799;50.996;4.754;2023-05-28T11:00:09;6.30;;;4.50;;
8861;SDS011;4799;50.996;4.754;2023-05-28T11:02:42;6.40;;;4.47;;
8861;SDS011;4799;50.996;4.754;2023-05-28T11:05:10;10.53;;;4.47;;
8861;SDS011;4799;50.996;4.754;2023-05-28T11:07:37;7.97;;;4.77;;
8861;SDS011;4799;50.996;4.754;2023-05-28T11:10:08;7.70;;;4.90;;
8861;SDS011;4799;50.996;4.754;2023-05-28T11:12:36;7.30;;;4.73;;
8861;SDS011;4799;50.996;4.754;2023-05-28T11:15:04;9.03;;;4.90;;
8861;SDS011;4799;50.996;4.754;2023-05-28T11:20:03;8.00;;;4.77;;
8861;SDS011;4799;50.996;4.754;2023-05-28T11:22:34;5.57;;;4.50;;
8861;SDS011;4799;50.996;4.754;2023-05-28T11:25:04;7.70;;;4.67;;
8861;SDS011;4799;50.996;4.754;2023-05-28T11:27:31;6.23;;;4.53;;
8861;SDS011;4799;50.996;4.754;2023-05-28T11:30:00;7.53;;;4.67;;
8861;SDS011;4799;50.996;4.754;2023-05-28T11:32:28;7.20;;;4.37;;
8861;SDS011;4799;50.996;4.754;2023-05-28T11:34:58;6.97;;;4.90;;
8861;SDS011;4799;50.996;4.754;2023-05-28T11:37:25;5.90;;;4.57;;
8861;SDS011;4799;50.996;4.754;2023-05-28T11:39:52;5.37;;;4.40;;
8861;SDS011;4799;50.996;4.754;2023-05-28T11:42:19;8.00;;;4.67;;
8861;SDS011;4799;50.996;4.754;2023-05-28T11:44:46;7.73;;;4.80;;
8861;SDS011;4799;50.996;4.754;2023-05-28T11:47:13;9.27;;;4.97;;
8861;SDS011;4799;50.996;4.754;2023-05-28T11:49:40;7.53;;;4.57;;
8861;SDS011;4799;50.996;4.754;2023-05-28T11:52:13;7.40;;;4.40;;
8861;SDS011;4799;50.996;4.754;2023-05-28T11:54:40;9.13;;;4.53;;
8861;SDS011;4799;50.996;4.754;2023-05-28T11:57:08;8.43;;;4.53;;
8861;SDS011;4799;50.996;4.754;2023-05-28T11:59:34;6.43;;;4.27;;
8861;SDS011;4799;50.996;4.754;2023-05-28T12:02:10;8.97;;;4.67;;
8861;SDS011;4799;50.996;4.754;2023-05-28T12:04:37;7.03;;;4.70;;
8861;SDS011;4799;50.996;4.754;2023-05-28T12:07:03;7.70;;;4.60;;
8861;SDS011;4799;50.996;4.754;2023-05-28T12:09:29;5.03;;;4.20;;
8861;SDS011;4799;50.996;4.754;2023-05-28T12:12:10;6.97;;;4.60;;
8861;SDS011;4799;50.996;4.754;2023-05-28T12:14:37;7.67;;;4.77;;
8861;SDS011;4799;50.996;4.754;2023-05-28T12:17:04;6.07;;;4.33;;
8861;SDS011;4799;50.996;4.754;2023-05-28T12:19:35;7.50;;;5.20;;
8861;SDS011;4799;50.996;4.754;2023-05-28T12:22:12;5.87;;;4.53;;
8861;SDS011;4799;50.996;4.754;2023-05-28T12:24:50;6.87;;;4.60;;
8861;SDS011;4799;50.996;4.754;2023-05-28T12:27:18;5.63;;;4.63;;
8861;SDS011;4799;50.996;4.754;2023-05-28T12:29:44;7.70;;;5.20;;
8861;SDS011;4799;50.996;4.754;2023-05-28T12:32:11;8.27;;;4.93;;
8861;SDS011;4799;50.996;4.754;2023-05-28T12:34:37;6.87;;;4.87;;
8861;SDS011;4799;50.996;4.754;2023-05-28T12:37:02;6.30;;;4.57;;
8861;SDS011;4799;50.996;4.754;2023-05-28T12:39:29;6.43;;;5.07;;
8861;SDS011;4799;50.996;4.754;2023-05-28T12:41:55;7.77;;;5.10;;
8861;SDS011;4799;50.996;4.754;2023-05-28T12:44:21;7.50;;;4.67;;
8861;SDS011;4799;50.996;4.754;2023-05-28T12:46:46;8.00;;;4.77;;
8861;SDS011;4799;50.996;4.754;2023-05-28T12:49:12;9.00;;;5.33;;
8861;SDS011;4799;50.996;4.754;2023-05-28T12:51:38;6.93;;;4.87;;
8861;SDS011;4799;50.996;4.754;2023-05-28T12:54:05;6.87;;;4.80;;
8861;SDS011;4799;50.996;4.754;2023-05-28T12:56:32;6.03;;;4.83;;
8861;SDS011;4799;50.996;4.754;2023-05-28T12:58:58;6.07;;;4.80;;
8861;SDS011;4799;50.996;4.754;2023-05-28T13:01:24;6.00;;;4.63;;
8861;SDS011;4799;50.996;4.754;2023-05-28T13:03:51;6.50;;;4.50;;
8861;SDS011;4799;50.996;4.754;2023-05-28T13:06:17;6.20;;;4.60;;
8861;SDS011;4799;50.996;4.754;2023-05-28T13:08:44;7.30;;;4.70;;
8861;SDS011;4799;50.996;4.754;2023-05-28T13:11:10;7.07;;;4.80;;
8861;SDS011;4799;50.996;4.754;2023-05-28T13:13:37;6.33;;;4.57;;
8861;SDS011;4799;50.996;4.754;2023-05-28T13:16:03;8.10;;;4.40;;
8861;SDS011;4799;50.996;4.754;2023-05-28T13:18:29;6.17;;;4.60;;
8861;SDS011;4799;50.996;4.754;2023-05-28T13:20:55;7.17;;;4.70;;
8861;SDS011;4799;50.996;4.754;2023-05-28T13:23:20;7.27;;;4.50;;
8861;SDS011;4799;50.996;4.754;2023-05-28T13:25:46;6.57;;;4.10;;
8861;SDS011;4799;50.996;4.754;2023-05-28T13:28:12;6.40;;;4.33;;
8861;SDS011;4799;50.996;4.754;2023-05-28T13:30:39;7.20;;;4.37;;
8861;SDS011;4799;50.996;4.754;2023-05-28T13:33:05;7.30;;;4.90;;
8861;SDS011;4799;50.996;4.754;2023-05-28T13:35:31;8.73;;;4.83;;
8861;SDS011;4799;50.996;4.754;2023-05-28T13:37:56;6.73;;;4.70;;
8861;SDS011;4799;50.996;4.754;2023-05-28T13:40:22;7.30;;;4.47;;
8861;SDS011;4799;50.996;4.754;2023-05-28T13:42:49;7.97;;;4.53;;
8861;SDS011;4799;50.996;4.754;2023-05-28T13:45:15;7.17;;;4.53;;
8861;SDS011;4799;50.996;4.754;2023-05-28T13:47:41;5.40;;;4.17;;
8861;SDS011;4799;50.996;4.754;2023-05-28T13:50:07;6.97;;;4.30;;
8861;SDS011;4799;50.996;4.754;2023-05-28T13:52:34;6.07;;;4.23;;
8861;SDS011;4799;50.996;4.754;2023-05-28T13:55:00;6.70;;;4.60;;
8861;SDS011;4799;50.996;4.754;2023-05-28T13:57:26;5.97;;;4.37;;
8861;SDS011;4799;50.996;4.754;2023-05-28T13:59:52;6.40;;;4.30;;
8861;SDS011;4799;50.996;4.754;2023-05-28T14:02:17;7.30;;;4.30;;
8861;SDS011;4799;50.996;4.754;2023-05-28T14:04:43;7.67;;;4.47;;
8861;SDS011;4799;50.996;4.754;2023-05-28T14:07:09;6.53;;;4.43;;
8861;SDS011;4799;50.996;4.754;2023-05-28T14:09:35;6.73;;;4.17;;
8861;SDS011;4799;50.996;4.754;2023-05-28T14:12:04;7.33;;;4.40;;
8861;SDS011;4799;50.996;4.754;2023-05-28T14:14:30;8.23;;;4.67;;
8861;SDS011;4799;50.996;4.754;2023-05-28T14:16:56;9.50;;;4.37;;
8861;SDS011;4799;50.996;4.754;2023-05-28T14:19:22;6.77;;;4.80;;
8861;SDS011;4799;50.996;4.754;2023-05-28T14:21:48;6.47;;;4.53;;
8861;SDS011;4799;50.996;4.754;2023-05-28T14:24:13;7.00;;;4.60;;
8861;SDS011;4799;50.996;4.754;2023-05-28T14:26:39;6.67;;;4.33;;
8861;SDS011;4799;50.996;4.754;2023-05-28T14:29:05;7.37;;;4.80;;
8861;SDS011;4799;50.996;4.754;2023-05-28T14:31:30;5.33;;;4.30;;
8861;SDS011;4799;50.996;4.754;2023-05-28T14:33:56;7.83;;;4.43;;
8861;SDS011;4799;50.996;4.754;2023-05-28T14:36:22;7.27;;;4.17;;
8861;SDS011;4799;50.996;4.754;2023-05-28T14:38:48;4.80;;;3.70;;
8861;SDS011;4799;50.996;4.754;2023-05-28T14:41:14;6.03;;;3.90;;
8861;SDS011;4799;50.996;4.754;2023-05-28T14:43:39;7.70;;;4.17;;
8861;SDS011;4799;50.996;4.754;2023-05-28T14:46:05;8.37;;;4.27;;
8861;SDS011;4799;50.996;4.754;2023-05-28T14:48:31;5.63;;;4.33;;
8861;SDS011;4799;50.996;4.754;2023-05-28T14:50:56;7.70;;;4.20;;
8861;SDS011;4799;50.996;4.754;2023-05-28T14:53:22;6.87;;;4.37;;
8861;SDS011;4799;50.996;4.754;2023-05-28T14:55:48;6.57;;;4.20;;
8861;SDS011;4799;50.996;4.754;2023-05-28T14:58:14;6.37;;;3.53;;
8861;SDS011;4799;50.996;4.754;2023-05-28T15:00:40;4.80;;;3.80;;
8861;SDS011;4799;50.996;4.754;2023-05-28T15:03:06;6.23;;;3.93;;
8861;SDS011;4799;50.996;4.754;2023-05-28T15:05:31;5.27;;;3.63;;
8861;SDS011;4799;50.996;4.754;2023-05-28T15:07:57;5.47;;;3.90;;
8861;SDS011;4799;50.996;4.754;2023-05-28T15:10:23;4.17;;;3.43;;